sensor_id;sensor_type;location;lat;lon;timestamp;P1;durP1;ratioP1;P2;durP2;ratioP2
76127;SDS011;64873;50.102;14.434;2022-12-24T00:01:40;8.85;;;3.47;;
76127;SDS011;64873;50.102;14.434;2022-12-24T00:04:05;7.20;;;3.40;;
76127;SDS011;64873;50.102;14.434;2022-12-24T00:06:31;3.80;;;2.80;;
76127;SDS011;64873;50.102;14.434;2022-12-24T00:08:56;4.93;;;3.03;;
76127;SDS011;64873;50.102;14.434;2022-12-24T00:11:22;6.13;;;3.63;;
76127;SDS011;64873;50.102;14.434;2022-12-24T00:13:47;5.78;;;3.83;;
76127;SDS011;64873;50.102;14.434;2022-12-24T00:16:13;6.32;;;4.03;;
76127;SDS011;64873;50.102;14.434;2022-12-24T00:18:39;7.28;;;4.25;;
76127;SDS011;64873;50.102;14.434;2022-12-24T00:21:04;5.72;;;3.70;;
76127;SDS011;64873;50.102;14.434;2022-12-24T00:23:30;7.20;;;4.00;;
76127;SDS011;64873;50.102;14.434;2022-12-24T00:25:56;5.30;;;3.28;;
76127;SDS011;64873;50.102;14.434;2022-12-24T00:28:21;6.20;;;3.17;;
76127;SDS011;64873;50.102;14.434;2022-12-24T00:30:47;6.00;;;3.00;;
76127;SDS011;64873;50.102;14.434;2022-12-24T00:33:12;7.40;;;3.55;;
76127;SDS011;64873;50.102;14.434;2022-12-24T00:35:38;7.30;;;3.70;;
76127;SDS011;64873;50.102;14.434;2022-12-24T00:38:05;4.82;;;3.22;;
76127;SDS011;64873;50.102;14.434;2022-12-24T00:40:31;6.35;;;3.80;;
76127;SDS011;64873;50.102;14.434;2022-12-24T00:42:57;6.47;;;4.10;;
76127;SDS011;64873;50.102;14.434;2022-12-24T00:45:23;6.40;;;3.65;;
76127;SDS011;64873;50.102;14.434;2022-12-24T00:47:50;4.43;;;3.00;;
76127;SDS011;64873;50.102;14.434;2022-12-24T00:50:16;6.53;;;3.17;;
76127;SDS011;64873;50.102;14.434;2022-12-24T00:52:41;4.03;;;2.78;;
76127;SDS011;64873;50.102;14.434;2022-12-24T00:55:07;4.63;;;2.58;;
76127;SDS011;64873;50.102;14.434;2022-12-24T00:57:33;4.53;;;1.95;;
76127;SDS011;64873;50.102;14.434;2022-12-24T00:59:58;3.50;;;2.20;;
76127;SDS011;64873;50.102;14.434;2022-12-24T01:02:24;3.65;;;1.80;;
76127;SDS011;64873;50.102;14.434;2022-12-24T01:04:49;3.75;;;1.88;;
76127;SDS011;64873;50.102;14.434;2022-12-24T01:07:50;4.53;;;1.90;;
76127;SDS011;64873;50.102;14.434;2022-12-24T01:10:17;3.58;;;1.55;;
76127;SDS011;64873;50.102;14.434;2022-12-24T01:12:44;4.93;;;1.40;;
76127;SDS011;64873;50.102;14.434;2022-12-24T01:15:11;5.13;;;1.20;;
76127;SDS011;64873;50.102;14.434;2022-12-24T01:17:38;1.88;;;1.13;;
76127;SDS011;64873;50.102;14.434;2022-12-24T01:20:05;2.05;;;1.33;;
76127;SDS011;64873;50.102;14.434;2022-12-24T01:22:32;3.38;;;1.15;;
76127;SDS011;64873;50.102;14.434;2022-12-24T01:24:58;2.85;;;1.05;;
76127;SDS011;64873;50.102;14.434;2022-12-24T01:27:24;4.03;;;1.13;;
76127;SDS011;64873;50.102;14.434;2022-12-24T01:29:49;2.47;;;0.98;;
76127;SDS011;64873;50.102;14.434;2022-12-24T01:32:14;2.85;;;1.20;;
76127;SDS011;64873;50.102;14.434;2022-12-24T01:34:40;2.90;;;1.23;;
76127;SDS011;64873;50.102;14.434;2022-12-24T01:37:05;2.28;;;1.08;;
76127;SDS011;64873;50.102;14.434;2022-12-24T01:39:31;2.33;;;1.10;;
76127;SDS011;64873;50.102;14.434;2022-12-24T01:41:56;2.78;;;1.45;;
76127;SDS011;64873;50.102;14.434;2022-12-24T01:44:41;1.80;;;0.90;;
76127;SDS011;64873;50.102;14.434;2022-12-24T01:49:56;2.47;;;1.00;;
76127;SDS011;64873;50.102;14.434;2022-12-24T01:52:25;3.85;;;0.88;;
76127;SDS011;64873;50.102;14.434;2022-12-24T01:54:55;6.38;;;1.33;;
76127;SDS011;64873;50.102;14.434;2022-12-24T01:59:54;6.30;;;1.08;;
76127;SDS011;64873;50.102;14.434;2022-12-24T02:02:24;7.13;;;1.30;;
76127;SDS011;64873;50.102;14.434;2022-12-24T02:07:31;4.63;;;0.98;;
76127;SDS011;64873;50.102;14.434;2022-12-24T02:09:59;4.38;;;0.93;;
76127;SDS011;64873;50.102;14.434;2022-12-24T02:12:29;2.22;;;0.80;;
76127;SDS011;64873;50.102;14.434;2022-12-24T02:14:58;4.07;;;1.02;;
76127;SDS011;64873;50.102;14.434;2022-12-24T02:22:29;3.85;;;1.00;;
76127;SDS011;64873;50.102;14.434;2022-12-24T02:25:21;4.03;;;1.02;;
76127;SDS011;64873;50.102;14.434;2022-12-24T02:28:23;5.95;;;0.98;;
76127;SDS011;64873;50.102;14.434;2022-12-24T02:31:05;1.70;;;0.70;;
76127;SDS011;64873;50.102;14.434;2022-12-24T02:36:45;6.57;;;1.20;;
76127;SDS011;64873;50.102;14.434;2022-12-24T02:39:23;5.43;;;1.35;;
76127;SDS011;64873;50.102;14.434;2022-12-24T02:42:05;6.18;;;1.20;;
76127;SDS011;64873;50.102;14.434;2022-12-24T02:44:35;3.85;;;0.93;;
76127;SDS011;64873;50.102;14.434;2022-12-24T02:47:05;4.28;;;1.02;;
76127;SDS011;64873;50.102;14.434;2022-12-24T02:49:33;5.63;;;1.65;;
76127;SDS011;64873;50.102;14.434;2022-12-24T02:51:59;3.80;;;0.93;;
76127;SDS011;64873;50.102;14.434;2022-12-24T02:54:25;2.63;;;1.10;;
76127;SDS011;64873;50.102;14.434;2022-12-24T03:02:19;4.75;;;1.10;;
76127;SDS011;64873;50.102;14.434;2022-12-24T03:04:58;3.75;;;1.42;;
76127;SDS011;64873;50.102;14.434;2022-12-24T03:07:37;6.07;;;1.10;;
76127;SDS011;64873;50.102;14.434;2022-12-24T03:13:25;5.00;;;1.42;;
76127;SDS011;64873;50.102;14.434;2022-12-24T03:15:51;4.70;;;0.95;;
76127;SDS011;64873;50.102;14.434;2022-12-24T03:18:18;5.78;;;1.50;;
76127;SDS011;64873;50.102;14.434;2022-12-24T03:20:48;2.67;;;0.75;;
76127;SDS011;64873;50.102;14.434;2022-12-24T03:23:18;5.28;;;0.95;;
76127;SDS011;64873;50.102;14.434;2022-12-24T03:25:44;4.07;;;1.17;;
76127;SDS011;64873;50.102;14.434;2022-12-24T03:28:11;4.03;;;1.27;;
76127;SDS011;64873;50.102;14.434;2022-12-24T03:30:40;4.93;;;1.35;;
76127;SDS011;64873;50.102;14.434;2022-12-24T03:33:08;7.40;;;1.88;;
76127;SDS011;64873;50.102;14.434;2022-12-24T03:35:34;4.47;;;1.05;;
76127;SDS011;64873;50.102;14.434;2022-12-24T03:37:59;5.95;;;1.40;;
76127;SDS011;64873;50.102;14.434;2022-12-24T03:40:25;5.72;;;1.63;;
76127;SDS011;64873;50.102;14.434;2022-12-24T03:42:50;8.02;;;1.38;;
76127;SDS011;64873;50.102;14.434;2022-12-24T03:45:16;6.20;;;1.33;;
76127;SDS011;64873;50.102;14.434;2022-12-24T03:47:41;7.65;;;1.23;;
76127;SDS011;64873;50.102;14.434;2022-12-24T03:50:07;5.03;;;1.40;;
76127;SDS011;64873;50.102;14.434;2022-12-24T03:52:32;6.47;;;1.80;;
76127;SDS011;64873;50.102;14.434;2022-12-24T03:54:58;8.40;;;1.40;;
76127;SDS011;64873;50.102;14.434;2022-12-24T03:57:23;8.95;;;1.65;;
76127;SDS011;64873;50.102;14.434;2022-12-24T03:59:49;7.68;;;1.70;;
76127;SDS011;64873;50.102;14.434;2022-12-24T04:02:15;7.55;;;1.27;;
76127;SDS011;64873;50.102;14.434;2022-12-24T04:04:40;7.53;;;1.45;;
76127;SDS011;64873;50.102;14.434;2022-12-24T04:07:06;5.75;;;1.65;;
76127;SDS011;64873;50.102;14.434;2022-12-24T04:09:31;6.10;;;1.25;;
76127;SDS011;64873;50.102;14.434;2022-12-24T04:11:57;4.72;;;1.45;;
76127;SDS011;64873;50.102;14.434;2022-12-24T04:14:22;4.32;;;1.05;;
76127;SDS011;64873;50.102;14.434;2022-12-24T04:16:48;5.85;;;1.25;;
76127;SDS011;64873;50.102;14.434;2022-12-24T04:19:13;7.03;;;1.50;;
76127;SDS011;64873;50.102;14.434;2022-12-24T04:21:38;7.97;;;1.75;;
76127;SDS011;64873;50.102;14.434;2022-12-24T04:24:04;6.65;;;1.10;;
76127;SDS011;64873;50.102;14.434;2022-12-24T04:26:29;7.35;;;1.30;;
76127;SDS011;64873;50.102;14.434;2022-12-24T04:28:55;5.22;;;1.25;;
76127;SDS011;64873;50.102;14.434;2022-12-24T04:31:21;8.70;;;1.48;;
76127;SDS011;64873;50.102;14.434;2022-12-24T04:33:46;5.50;;;1.27;;
76127;SDS011;64873;50.102;14.434;2022-12-24T04:36:13;6.07;;;1.30;;
76127;SDS011;64873;50.102;14.434;2022-12-24T04:38:44;8.25;;;1.77;;
76127;SDS011;64873;50.102;14.434;2022-12-24T04:41:11;10.85;;;1.85;;
76127;SDS011;64873;50.102;14.434;2022-12-24T04:43:38;5.72;;;1.75;;
76127;SDS011;64873;50.102;14.434;2022-12-24T04:46:05;5.28;;;1.38;;
76127;SDS011;64873;50.102;14.434;2022-12-24T04:48:31;9.68;;;1.75;;
76127;SDS011;64873;50.102;14.434;2022-12-24T04:50:59;8.15;;;1.70;;
76127;SDS011;64873;50.102;14.434;2022-12-24T04:53:25;5.18;;;1.20;;
76127;SDS011;64873;50.102;14.434;2022-12-24T04:55:51;6.00;;;1.25;;
76127;SDS011;64873;50.102;14.434;2022-12-24T04:58:16;6.38;;;1.98;;
76127;SDS011;64873;50.102;14.434;2022-12-24T05:00:42;7.20;;;1.38;;
76127;SDS011;64873;50.102;14.434;2022-12-24T05:03:07;4.68;;;1.20;;
76127;SDS011;64873;50.102;14.434;2022-12-24T05:05:32;7.03;;;1.35;;
76127;SDS011;64873;50.102;14.434;2022-12-24T05:07:58;10.30;;;1.80;;
76127;SDS011;64873;50.102;14.434;2022-12-24T05:10:23;5.60;;;1.33;;
76127;SDS011;64873;50.102;14.434;2022-12-24T05:12:49;8.38;;;1.58;;
76127;SDS011;64873;50.102;14.434;2022-12-24T05:15:14;8.48;;;1.58;;
76127;SDS011;64873;50.102;14.434;2022-12-24T05:17:40;8.63;;;1.40;;
76127;SDS011;64873;50.102;14.434;2022-12-24T05:20:05;6.38;;;1.35;;
76127;SDS011;64873;50.102;14.434;2022-12-24T05:22:31;5.28;;;1.35;;
76127;SDS011;64873;50.102;14.434;2022-12-24T05:25:15;12.23;;;1.98;;
76127;SDS011;64873;50.102;14.434;2022-12-24T05:27:59;5.95;;;1.30;;
76127;SDS011;64873;50.102;14.434;2022-12-24T05:30:24;10.00;;;1.63;;
76127;SDS011;64873;50.102;14.434;2022-12-24T05:32:50;5.57;;;1.02;;
76127;SDS011;64873;50.102;14.434;2022-12-24T05:35:15;8.93;;;1.45;;
76127;SDS011;64873;50.102;14.434;2022-12-24T05:37:41;5.65;;;1.45;;
76127;SDS011;64873;50.102;14.434;2022-12-24T05:40:06;4.60;;;1.30;;
76127;SDS011;64873;50.102;14.434;2022-12-24T05:42:32;9.45;;;1.95;;
76127;SDS011;64873;50.102;14.434;2022-12-24T05:44:57;7.75;;;1.20;;
76127;SDS011;64873;50.102;14.434;2022-12-24T05:47:23;6.18;;;1.55;;
76127;SDS011;64873;50.102;14.434;2022-12-24T05:49:48;6.05;;;1.40;;
76127;SDS011;64873;50.102;14.434;2022-12-24T05:52:14;12.00;;;2.08;;
76127;SDS011;64873;50.102;14.434;2022-12-24T05:54:39;4.20;;;1.02;;
76127;SDS011;64873;50.102;14.434;2022-12-24T05:57:05;2.10;;;0.82;;
76127;SDS011;64873;50.102;14.434;2022-12-24T05:59:30;4.57;;;0.85;;
76127;SDS011;64873;50.102;14.434;2022-12-24T06:01:55;5.55;;;1.10;;
76127;SDS011;64873;50.102;14.434;2022-12-24T06:04:21;5.82;;;1.13;;
76127;SDS011;64873;50.102;14.434;2022-12-24T06:06:46;7.13;;;1.58;;
76127;SDS011;64873;50.102;14.434;2022-12-24T06:09:12;6.32;;;1.33;;
76127;SDS011;64873;50.102;14.434;2022-12-24T06:11:37;6.05;;;1.25;;
76127;SDS011;64873;50.102;14.434;2022-12-24T06:14:02;8.15;;;1.80;;
76127;SDS011;64873;50.102;14.434;2022-12-24T06:16:28;7.03;;;1.20;;
76127;SDS011;64873;50.102;14.434;2022-12-24T06:18:53;10.00;;;2.33;;
76127;SDS011;64873;50.102;14.434;2022-12-24T06:21:19;6.07;;;2.17;;
76127;SDS011;64873;50.102;14.434;2022-12-24T06:23:45;7.38;;;1.38;;
76127;SDS011;64873;50.102;14.434;2022-12-24T06:26:15;9.45;;;1.83;;
76127;SDS011;64873;50.102;14.434;2022-12-24T06:28:43;7.93;;;1.48;;
76127;SDS011;64873;50.102;14.434;2022-12-24T06:31:10;5.60;;;1.13;;
76127;SDS011;64873;50.102;14.434;2022-12-24T06:33:38;5.18;;;1.40;;
76127;SDS011;64873;50.102;14.434;2022-12-24T06:36:07;6.78;;;1.45;;
76127;SDS011;64873;50.102;14.434;2022-12-24T06:38:36;10.20;;;1.30;;
76127;SDS011;64873;50.102;14.434;2022-12-24T06:41:05;9.45;;;1.58;;
76127;SDS011;64873;50.102;14.434;2022-12-24T06:43:31;6.63;;;1.25;;
76127;SDS011;64873;50.102;14.434;2022-12-24T06:45:58;5.55;;;1.70;;
76127;SDS011;64873;50.102;14.434;2022-12-24T06:48:24;4.85;;;1.15;;
76127;SDS011;64873;50.102;14.434;2022-12-24T06:50:50;7.80;;;1.20;;
76127;SDS011;64873;50.102;14.434;2022-12-24T06:53:15;6.25;;;1.30;;
76127;SDS011;64873;50.102;14.434;2022-12-24T06:55:41;10.57;;;1.48;;
76127;SDS011;64873;50.102;14.434;2022-12-24T06:58:06;5.30;;;1.23;;
76127;SDS011;64873;50.102;14.434;2022-12-24T07:00:31;4.25;;;1.27;;
76127;SDS011;64873;50.102;14.434;2022-12-24T07:02:57;5.97;;;1.13;;
76127;SDS011;64873;50.102;14.434;2022-12-24T07:05:23;9.27;;;1.70;;
76127;SDS011;64873;50.102;14.434;2022-12-24T07:07:48;10.35;;;1.67;;
76127;SDS011;64873;50.102;14.434;2022-12-24T07:10:14;9.00;;;1.30;;
76127;SDS011;64873;50.102;14.434;2022-12-24T07:12:41;4.75;;;1.20;;
76127;SDS011;64873;50.102;14.434;2022-12-24T07:15:07;7.72;;;1.60;;
76127;SDS011;64873;50.102;14.434;2022-12-24T07:17:34;8.30;;;1.55;;
76127;SDS011;64873;50.102;14.434;2022-12-24T07:20:00;7.15;;;1.45;;
76127;SDS011;64873;50.102;14.434;2022-12-24T07:22:25;8.40;;;1.48;;
76127;SDS011;64873;50.102;14.434;2022-12-24T07:24:50;3.03;;;1.13;;
76127;SDS011;64873;50.102;14.434;2022-12-24T07:27:16;9.48;;;1.98;;
76127;SDS011;64873;50.102;14.434;2022-12-24T07:29:42;7.18;;;1.55;;
76127;SDS011;64873;50.102;14.434;2022-12-24T07:32:07;6.70;;;1.20;;
76127;SDS011;64873;50.102;14.434;2022-12-24T07:34:33;8.02;;;1.85;;
76127;SDS011;64873;50.102;14.434;2022-12-24T07:36:59;9.18;;;1.70;;
76127;SDS011;64873;50.102;14.434;2022-12-24T07:39:24;9.32;;;1.60;;
76127;SDS011;64873;50.102;14.434;2022-12-24T07:41:50;8.57;;;1.45;;
76127;SDS011;64873;50.102;14.434;2022-12-24T07:44:15;10.13;;;2.00;;
76127;SDS011;64873;50.102;14.434;2022-12-24T07:46:41;11.80;;;2.05;;
76127;SDS011;64873;50.102;14.434;2022-12-24T07:49:07;11.43;;;2.75;;
76127;SDS011;64873;50.102;14.434;2022-12-24T07:51:33;8.45;;;1.75;;
76127;SDS011;64873;50.102;14.434;2022-12-24T07:53:59;6.30;;;1.90;;
76127;SDS011;64873;50.102;14.434;2022-12-24T07:56:24;9.23;;;2.00;;
76127;SDS011;64873;50.102;14.434;2022-12-24T07:58:50;8.30;;;1.73;;
76127;SDS011;64873;50.102;14.434;2022-12-24T08:01:16;8.25;;;1.90;;
76127;SDS011;64873;50.102;14.434;2022-12-24T08:03:42;6.70;;;1.65;;
76127;SDS011;64873;50.102;14.434;2022-12-24T08:06:07;9.07;;;1.80;;
76127;SDS011;64873;50.102;14.434;2022-12-24T08:08:33;7.72;;;2.10;;
76127;SDS011;64873;50.102;14.434;2022-12-24T08:11:00;9.07;;;2.15;;
76127;SDS011;64873;50.102;14.434;2022-12-24T08:13:27;13.98;;;2.78;;
76127;SDS011;64873;50.102;14.434;2022-12-24T08:15:52;7.90;;;1.85;;
76127;SDS011;64873;50.102;14.434;2022-12-24T08:18:18;10.70;;;2.72;;
76127;SDS011;64873;50.102;14.434;2022-12-24T08:20:43;10.82;;;2.15;;
76127;SDS011;64873;50.102;14.434;2022-12-24T08:23:09;9.13;;;1.85;;
76127;SDS011;64873;50.102;14.434;2022-12-24T08:25:34;5.82;;;1.60;;
76127;SDS011;64873;50.102;14.434;2022-12-24T08:28:00;11.40;;;2.42;;
76127;SDS011;64873;50.102;14.434;2022-12-24T08:30:26;10.25;;;2.45;;
76127;SDS011;64873;50.102;14.434;2022-12-24T08:32:52;9.43;;;1.80;;
76127;SDS011;64873;50.102;14.434;2022-12-24T08:35:18;5.90;;;1.75;;
76127;SDS011;64873;50.102;14.434;2022-12-24T08:37:44;11.88;;;2.20;;
76127;SDS011;64873;50.102;14.434;2022-12-24T08:40:12;9.98;;;1.50;;
76127;SDS011;64873;50.102;14.434;2022-12-24T08:42:38;12.23;;;2.13;;
76127;SDS011;64873;50.102;14.434;2022-12-24T08:45:06;9.07;;;1.83;;
76127;SDS011;64873;50.102;14.434;2022-12-24T08:47:32;8.65;;;1.80;;
76127;SDS011;64873;50.102;14.434;2022-12-24T08:49:57;11.27;;;2.20;;
76127;SDS011;64873;50.102;14.434;2022-12-24T08:52:23;7.75;;;1.95;;
76127;SDS011;64873;50.102;14.434;2022-12-24T08:54:48;10.65;;;2.33;;
76127;SDS011;64873;50.102;14.434;2022-12-24T08:57:13;8.85;;;2.05;;
76127;SDS011;64873;50.102;14.434;2022-12-24T08:59:39;11.02;;;2.10;;
76127;SDS011;64873;50.102;14.434;2022-12-24T09:02:04;10.80;;;2.22;;
76127;SDS011;64873;50.102;14.434;2022-12-24T09:04:30;9.55;;;2.08;;
76127;SDS011;64873;50.102;14.434;2022-12-24T09:06:55;9.52;;;2.50;;
76127;SDS011;64873;50.102;14.434;2022-12-24T09:09:21;9.40;;;1.67;;
76127;SDS011;64873;50.102;14.434;2022-12-24T09:11:46;10.73;;;2.63;;
76127;SDS011;64873;50.102;14.434;2022-12-24T09:14:12;15.25;;;2.40;;
76127;SDS011;64873;50.102;14.434;2022-12-24T09:16:37;12.35;;;2.40;;
76127;SDS011;64873;50.102;14.434;2022-12-24T09:19:03;10.65;;;1.92;;
76127;SDS011;64873;50.102;14.434;2022-12-24T09:21:28;14.45;;;2.20;;
76127;SDS011;64873;50.102;14.434;2022-12-24T09:23:54;11.43;;;3.17;;
76127;SDS011;64873;50.102;14.434;2022-12-24T09:26:23;9.88;;;1.83;;
76127;SDS011;64873;50.102;14.434;2022-12-24T09:28:50;11.10;;;2.10;;
76127;SDS011;64873;50.102;14.434;2022-12-24T09:31:17;7.72;;;1.90;;
76127;SDS011;64873;50.102;14.434;2022-12-24T09:33:44;9.55;;;1.95;;
76127;SDS011;64873;50.102;14.434;2022-12-24T09:36:12;11.75;;;2.90;;
76127;SDS011;64873;50.102;14.434;2022-12-24T09:38:38;13.90;;;3.10;;
76127;SDS011;64873;50.102;14.434;2022-12-24T09:46:55;8.55;;;2.03;;
76127;SDS011;64873;50.102;14.434;2022-12-24T09:49:25;7.57;;;1.77;;
76127;SDS011;64873;50.102;14.434;2022-12-24T09:52:13;7.78;;;1.70;;
76127;SDS011;64873;50.102;14.434;2022-12-24T09:54:49;6.47;;;1.88;;
76127;SDS011;64873;50.102;14.434;2022-12-24T09:57:37;9.77;;;2.00;;
76127;SDS011;64873;50.102;14.434;2022-12-24T10:00:29;10.10;;;2.17;;
76127;SDS011;64873;50.102;14.434;2022-12-24T10:02:53;5.93;;;1.35;;
76127;SDS011;64873;50.102;14.434;2022-12-24T10:05:22;7.40;;;1.95;;
76127;SDS011;64873;50.102;14.434;2022-12-24T10:15:29;5.85;;;1.52;;
76127;SDS011;64873;50.102;14.434;2022-12-24T10:23:14;7.65;;;1.55;;
76127;SDS011;64873;50.102;14.434;2022-12-24T10:31:40;22.27;;;2.75;;
76127;SDS011;64873;50.102;14.434;2022-12-24T10:34:18;8.30;;;1.95;;
76127;SDS011;64873;50.102;14.434;2022-12-24T10:36:47;9.45;;;1.77;;
76127;SDS011;64873;50.102;14.434;2022-12-24T10:39:17;7.72;;;2.15;;
76127;SDS011;64873;50.102;14.434;2022-12-24T10:41:46;11.85;;;2.63;;
76127;SDS011;64873;50.102;14.434;2022-12-24T10:44:15;13.32;;;2.45;;
76127;SDS011;64873;50.102;14.434;2022-12-24T10:46:42;8.80;;;2.17;;
76127;SDS011;64873;50.102;14.434;2022-12-24T10:49:14;8.73;;;1.67;;
76127;SDS011;64873;50.102;14.434;2022-12-24T10:54:12;14.32;;;2.28;;
76127;SDS011;64873;50.102;14.434;2022-12-24T10:56:43;8.30;;;1.90;;
76127;SDS011;64873;50.102;14.434;2022-12-24T11:05:09;11.98;;;3.10;;
76127;SDS011;64873;50.102;14.434;2022-12-24T11:08:06;15.38;;;2.35;;
76127;SDS011;64873;50.102;14.434;2022-12-24T11:10:39;10.82;;;1.80;;
76127;SDS011;64873;50.102;14.434;2022-12-24T11:18:55;9.48;;;2.00;;
76127;SDS011;64873;50.102;14.434;2022-12-24T11:21:30;9.50;;;2.22;;
76127;SDS011;64873;50.102;14.434;2022-12-24T11:23:58;13.18;;;2.33;;
76127;SDS011;64873;50.102;14.434;2022-12-24T11:26:28;8.88;;;2.25;;
76127;SDS011;64873;50.102;14.434;2022-12-24T11:31:49;9.23;;;2.80;;
76127;SDS011;64873;50.102;14.434;2022-12-24T11:34:28;13.30;;;2.25;;
76127;SDS011;64873;50.102;14.434;2022-12-24T11:37:12;10.40;;;2.63;;
76127;SDS011;64873;50.102;14.434;2022-12-24T11:39:47;12.05;;;2.17;;
76127;SDS011;64873;50.102;14.434;2022-12-24T11:42:22;10.75;;;1.92;;
76127;SDS011;64873;50.102;14.434;2022-12-24T11:44:52;10.57;;;2.10;;
76127;SDS011;64873;50.102;14.434;2022-12-24T11:53:11;8.13;;;1.80;;
76127;SDS011;64873;50.102;14.434;2022-12-24T11:55:51;8.68;;;2.03;;
76127;SDS011;64873;50.102;14.434;2022-12-24T12:01:20;5.85;;;1.65;;
76127;SDS011;64873;50.102;14.434;2022-12-24T12:03:50;11.63;;;2.33;;
76127;SDS011;64873;50.102;14.434;2022-12-24T12:09:11;9.45;;;2.42;;
76127;SDS011;64873;50.102;14.434;2022-12-24T12:11:41;9.45;;;2.13;;
76127;SDS011;64873;50.102;14.434;2022-12-24T12:14:15;8.95;;;1.95;;
76127;SDS011;64873;50.102;14.434;2022-12-24T12:19:41;8.10;;;2.25;;
76127;SDS011;64873;50.102;14.434;2022-12-24T12:22:17;5.63;;;1.80;;
76127;SDS011;64873;50.102;14.434;2022-12-24T12:24:54;13.07;;;2.30;;
76127;SDS011;64873;50.102;14.434;2022-12-24T12:27:26;8.63;;;1.75;;
76127;SDS011;64873;50.102;14.434;2022-12-24T12:30:00;10.30;;;2.08;;
76127;SDS011;64873;50.102;14.434;2022-12-24T12:32:38;7.45;;;2.22;;
76127;SDS011;64873;50.102;14.434;2022-12-24T12:40:49;8.55;;;2.03;;
76127;SDS011;64873;50.102;14.434;2022-12-24T12:44:21;7.13;;;2.35;;
76127;SDS011;64873;50.102;14.434;2022-12-24T12:58:30;10.43;;;2.13;;
76127;SDS011;64873;50.102;14.434;2022-12-24T13:01:06;7.15;;;1.95;;
76127;SDS011;64873;50.102;14.434;2022-12-24T13:03:46;9.05;;;2.05;;
76127;SDS011;64873;50.102;14.434;2022-12-24T13:06:49;10.98;;;2.67;;
76127;SDS011;64873;50.102;14.434;2022-12-24T13:09:22;5.85;;;2.15;;
76127;SDS011;64873;50.102;14.434;2022-12-24T13:14:52;10.25;;;2.08;;
76127;SDS011;64873;50.102;14.434;2022-12-24T13:20:53;5.57;;;2.05;;
76127;SDS011;64873;50.102;14.434;2022-12-24T13:23:14;14.85;;;4.95;;
76127;SDS011;64873;50.102;14.434;2022-12-24T13:25:48;5.75;;;2.05;;
76127;SDS011;64873;50.102;14.434;2022-12-24T13:30:48;5.40;;;2.35;;
76127;SDS011;64873;50.102;14.434;2022-12-24T13:36:09;5.65;;;2.13;;
76127;SDS011;64873;50.102;14.434;2022-12-24T13:44:22;4.78;;;1.88;;
76127;SDS011;64873;50.102;14.434;2022-12-24T13:49:41;5.93;;;1.90;;
76127;SDS011;64873;50.102;14.434;2022-12-24T13:57:35;8.57;;;2.00;;
76127;SDS011;64873;50.102;14.434;2022-12-24T14:02:38;9.25;;;2.25;;
76127;SDS011;64873;50.102;14.434;2022-12-24T14:05:16;10.13;;;2.25;;
76127;SDS011;64873;50.102;14.434;2022-12-24T14:07:47;7.25;;;1.90;;
76127;SDS011;64873;50.102;14.434;2022-12-24T14:10:20;9.18;;;2.95;;
76127;SDS011;64873;50.102;14.434;2022-12-24T14:12:49;9.90;;;3.28;;
76127;SDS011;64873;50.102;14.434;2022-12-24T14:18:19;9.95;;;2.22;;
76127;SDS011;64873;50.102;14.434;2022-12-24T14:20:51;11.30;;;2.65;;
76127;SDS011;64873;50.102;14.434;2022-12-24T14:23:36;7.32;;;2.22;;
76127;SDS011;64873;50.102;14.434;2022-12-24T14:26:11;11.30;;;2.95;;
76127;SDS011;64873;50.102;14.434;2022-12-24T14:28:43;4.35;;;1.77;;
76127;SDS011;64873;50.102;14.434;2022-12-24T14:31:17;9.30;;;2.58;;
76127;SDS011;64873;50.102;14.434;2022-12-24T14:33:43;12.48;;;2.63;;
76127;SDS011;64873;50.102;14.434;2022-12-24T14:36:09;11.50;;;2.53;;
76127;SDS011;64873;50.102;14.434;2022-12-24T14:38:39;7.30;;;2.25;;
76127;SDS011;64873;50.102;14.434;2022-12-24T14:41:27;8.80;;;2.45;;
76127;SDS011;64873;50.102;14.434;2022-12-24T14:46:48;10.50;;;2.40;;
76127;SDS011;64873;50.102;14.434;2022-12-24T15:05:11;7.47;;;2.50;;
76127;SDS011;64873;50.102;14.434;2022-12-24T15:07:38;13.50;;;2.55;;
76127;SDS011;64873;50.102;14.434;2022-12-24T15:10:18;8.07;;;2.63;;
76127;SDS011;64873;50.102;14.434;2022-12-24T15:12:48;15.43;;;3.80;;
76127;SDS011;64873;50.102;14.434;2022-12-24T15:15:15;10.10;;;3.05;;
76127;SDS011;64873;50.102;14.434;2022-12-24T15:17:42;9.07;;;2.78;;
76127;SDS011;64873;50.102;14.434;2022-12-24T15:20:13;12.95;;;4.35;;
76127;SDS011;64873;50.102;14.434;2022-12-24T15:22:42;14.63;;;4.43;;
76127;SDS011;64873;50.102;14.434;2022-12-24T15:25:24;10.82;;;4.57;;
76127;SDS011;64873;50.102;14.434;2022-12-24T15:27:52;15.23;;;4.53;;
76127;SDS011;64873;50.102;14.434;2022-12-24T15:30:20;11.35;;;4.10;;
76127;SDS011;64873;50.102;14.434;2022-12-24T15:32:49;11.80;;;4.50;;
76127;SDS011;64873;50.102;14.434;2022-12-24T15:40:58;15.88;;;4.18;;
76127;SDS011;64873;50.102;14.434;2022-12-24T15:43:26;13.07;;;3.95;;
76127;SDS011;64873;50.102;14.434;2022-12-24T15:45:52;13.13;;;4.05;;
76127;SDS011;64873;50.102;14.434;2022-12-24T15:48:26;11.95;;;3.92;;
76127;SDS011;64873;50.102;14.434;2022-12-24T15:50:59;10.63;;;2.80;;
76127;SDS011;64873;50.102;14.434;2022-12-24T15:56:02;10.05;;;3.13;;
76127;SDS011;64873;50.102;14.434;2022-12-24T15:58:34;8.07;;;2.50;;
76127;SDS011;64873;50.102;14.434;2022-12-24T16:01:05;10.63;;;2.55;;
76127;SDS011;64873;50.102;14.434;2022-12-24T16:06:15;13.50;;;3.20;;
76127;SDS011;64873;50.102;14.434;2022-12-24T16:08:42;7.25;;;2.50;;
76127;SDS011;64873;50.102;14.434;2022-12-24T16:13:57;10.80;;;3.40;;
76127;SDS011;64873;50.102;14.434;2022-12-24T16:16:30;13.13;;;3.58;;
76127;SDS011;64873;50.102;14.434;2022-12-24T16:19:14;11.93;;;3.70;;
76127;SDS011;64873;50.102;14.434;2022-12-24T16:21:42;9.80;;;3.05;;
76127;SDS011;64873;50.102;14.434;2022-12-24T16:24:16;12.55;;;3.22;;
76127;SDS011;64873;50.102;14.434;2022-12-24T16:26:44;10.15;;;3.15;;
76127;SDS011;64873;50.102;14.434;2022-12-24T16:29:10;8.43;;;3.15;;
76127;SDS011;64873;50.102;14.434;2022-12-24T16:31:37;8.82;;;3.13;;
76127;SDS011;64873;50.102;14.434;2022-12-24T16:34:08;12.80;;;3.28;;
76127;SDS011;64873;50.102;14.434;2022-12-24T16:36:38;9.40;;;2.95;;
76127;SDS011;64873;50.102;14.434;2022-12-24T16:39:04;13.13;;;3.85;;
76127;SDS011;64873;50.102;14.434;2022-12-24T16:41:55;10.68;;;3.08;;
76127;SDS011;64873;50.102;14.434;2022-12-24T16:44:41;9.68;;;3.35;;
76127;SDS011;64873;50.102;14.434;2022-12-24T16:47:12;8.40;;;3.50;;
76127;SDS011;64873;50.102;14.434;2022-12-24T16:50:00;15.35;;;5.13;;
76127;SDS011;64873;50.102;14.434;2022-12-24T16:52:28;11.05;;;4.00;;
76127;SDS011;64873;50.102;14.434;2022-12-24T16:54:55;14.10;;;4.88;;
76127;SDS011;64873;50.102;14.434;2022-12-24T16:57:21;12.93;;;4.28;;
76127;SDS011;64873;50.102;14.434;2022-12-24T16:59:47;12.60;;;4.30;;
76127;SDS011;64873;50.102;14.434;2022-12-24T17:02:17;9.85;;;4.40;;
76127;SDS011;64873;50.102;14.434;2022-12-24T17:04:44;10.13;;;3.83;;
76127;SDS011;64873;50.102;14.434;2022-12-24T17:07:11;11.98;;;3.85;;
76127;SDS011;64873;50.102;14.434;2022-12-24T17:09:38;9.20;;;3.22;;
76127;SDS011;64873;50.102;14.434;2022-12-24T17:12:03;10.65;;;3.70;;
76127;SDS011;64873;50.102;14.434;2022-12-24T17:14:29;9.57;;;3.10;;
76127;SDS011;64873;50.102;14.434;2022-12-24T17:16:55;11.73;;;3.13;;
76127;SDS011;64873;50.102;14.434;2022-12-24T17:19:20;8.70;;;3.20;;
76127;SDS011;64873;50.102;14.434;2022-12-24T17:21:46;10.30;;;2.67;;
76127;SDS011;64873;50.102;14.434;2022-12-24T17:24:11;6.05;;;2.15;;